createdAt,value
2018-12-27T00:01:51.903Z,28.17
2018-12-27T00:04:16.331Z,29.43
2018-12-27T00:06:40.744Z,29.70
2018-12-27T00:12:02.304Z,26.97
2018-12-27T00:14:26.728Z,26.80
2018-12-27T00:16:51.137Z,27.30
2018-12-27T00:19:15.560Z,26.97
2018-12-27T00:21:40.037Z,29.87
2018-12-27T00:24:04.459Z,25.57
2018-12-27T00:26:28.877Z,26.83
2018-12-27T00:28:53.284Z,24.10
2018-12-27T00:31:17.922Z,26.20
2018-12-27T00:33:42.452Z,27.13
2018-12-27T00:36:06.978Z,28.83
2018-12-27T00:38:31.530Z,27.07
2018-12-27T00:40:56.060Z,27.10
2018-12-27T00:43:20.604Z,25.17
2018-12-27T00:45:45.148Z,25.73
2018-12-27T00:48:09.683Z,27.27
2018-12-27T00:50:34.211Z,25.40
2018-12-27T00:52:58.813Z,27.40
2018-12-27T00:55:23.349Z,27.37
2018-12-27T00:57:47.878Z,26.43
2018-12-27T01:00:12.399Z,29.40
2018-12-27T01:02:36.928Z,27.13
2018-12-27T01:05:01.546Z,28.00
2018-12-27T01:07:26.068Z,27.37
2018-12-27T01:09:50.626Z,28.40
2018-12-27T01:12:15.162Z,25.37
2018-12-27T01:14:39.703Z,24.70
2018-12-27T01:17:04.233Z,25.30
2018-12-27T01:19:28.771Z,25.47
2018-12-27T01:21:53.302Z,25.33
2018-12-27T01:24:17.850Z,25.00
2018-12-27T01:26:42.391Z,24.00
2018-12-27T01:29:06.909Z,24.30
2018-12-27T01:31:31.430Z,25.37
2018-12-27T01:33:55.955Z,25.33
2018-12-27T01:36:20.505Z,24.63
2018-12-27T01:38:45.013Z,24.80
2018-12-27T01:41:09.529Z,23.63
2018-12-27T01:43:34.061Z,26.33
2018-12-27T01:45:58.668Z,23.50
2018-12-27T01:48:23.202Z,24.13
2018-12-27T01:50:47.734Z,26.50
2018-12-27T01:53:12.285Z,24.17
2018-12-27T01:55:36.801Z,22.40
2018-12-27T01:58:01.326Z,24.30
2018-12-27T02:00:25.837Z,23.67
2018-12-27T02:02:50.379Z,21.97
2018-12-27T02:05:14.896Z,21.47
2018-12-27T02:07:39.410Z,21.80
2018-12-27T02:10:03.951Z,20.70
2018-12-27T02:12:28.479Z,21.40
2018-12-27T02:14:53.016Z,20.63
2018-12-27T02:17:17.530Z,20.13
2018-12-27T02:19:42.061Z,19.83
2018-12-27T02:22:06.564Z,21.00
2018-12-27T02:24:31.102Z,20.23
2018-12-27T02:26:55.625Z,23.60
2018-12-27T02:29:20.169Z,23.07
2018-12-27T02:31:44.691Z,23.30
2018-12-27T02:34:09.218Z,22.77
2018-12-27T02:36:33.735Z,25.43
2018-12-27T02:38:58.267Z,27.60
2018-12-27T02:41:22.792Z,26.00
2018-12-27T02:43:47.298Z,24.07
2018-12-27T02:46:11.839Z,23.90
2018-12-27T02:48:36.365Z,25.27
2018-12-27T02:51:00.897Z,25.57
2018-12-27T02:53:25.426Z,23.30
2018-12-27T02:55:49.971Z,26.17
2018-12-27T02:58:14.503Z,24.57
2018-12-27T03:00:39.014Z,25.87
2018-12-27T03:03:03.541Z,27.17
2018-12-27T03:05:28.055Z,27.77
2018-12-27T03:07:52.579Z,28.47
2018-12-27T03:10:17.104Z,29.53
2018-12-27T03:12:41.647Z,29.53
2018-12-27T03:15:06.177Z,30.00
2018-12-27T03:17:30.789Z,29.97
2018-12-27T03:19:55.303Z,28.03
2018-12-27T03:22:19.820Z,29.07
2018-12-27T03:24:44.364Z,27.43
2018-12-27T03:27:08.889Z,29.27
2018-12-27T03:29:33.471Z,28.53
2018-12-27T03:31:57.978Z,31.70
2018-12-27T03:34:22.498Z,31.23
2018-12-27T03:36:47.008Z,32.70
2018-12-27T03:39:11.538Z,32.40
2018-12-27T03:41:36.059Z,30.70
2018-12-27T03:44:00.615Z,31.47
2018-12-27T03:46:25.133Z,29.60
2018-12-27T03:48:49.638Z,23.27
2018-12-27T03:51:14.185Z,30.20
2018-12-27T03:53:38.697Z,31.43
2018-12-27T03:56:03.236Z,32.53
2018-12-27T03:58:27.755Z,33.60
2018-12-27T04:00:52.291Z,34.17
2018-12-27T04:03:16.807Z,33.27
2018-12-27T04:05:41.327Z,32.80
2018-12-27T04:08:05.845Z,33.07
2018-12-27T04:10:30.363Z,33.47
2018-12-27T04:12:54.885Z,34.37
2018-12-27T04:15:19.262Z,32.90
2018-12-27T04:17:43.685Z,31.63
2018-12-27T04:20:08.076Z,34.03
2018-12-27T04:22:32.566Z,33.07
2018-12-27T04:24:57.015Z,32.57
2018-12-27T04:27:21.430Z,32.40
2018-12-27T04:29:45.842Z,33.23
2018-12-27T04:32:10.577Z,32.37
2018-12-27T04:34:35.206Z,30.50
2018-12-27T04:39:56.868Z,29.67
2018-12-27T04:42:32.716Z,29.97
2018-12-27T04:44:57.116Z,28.33
2018-12-27T04:47:21.511Z,30.67
2018-12-27T04:49:46.191Z,31.67
2018-12-27T04:52:10.573Z,30.80
2018-12-27T04:54:34.972Z,31.43
2018-12-27T04:56:59.370Z,29.53
2018-12-27T04:59:23.774Z,29.43
2018-12-27T05:01:48.171Z,30.13
2018-12-27T05:04:18.055Z,30.90
2018-12-27T05:06:44.373Z,28.67
2018-12-27T05:09:08.686Z,28.70
2018-12-27T05:11:33.077Z,27.27
2018-12-27T05:13:58.287Z,27.90
2018-12-27T05:16:29.230Z,29.13
2018-12-27T05:18:53.603Z,27.53
2018-12-27T05:21:18.042Z,26.13
2018-12-27T05:23:42.445Z,28.07
2018-12-27T05:26:06.843Z,27.57
2018-12-27T05:28:31.232Z,27.70
2018-12-27T05:30:55.614Z,26.60
2018-12-27T05:33:20.035Z,27.37
2018-12-27T05:35:44.422Z,27.03
2018-12-27T05:38:08.828Z,27.60
2018-12-27T05:40:33.225Z,27.37
2018-12-27T05:42:57.610Z,27.50
2018-12-27T05:45:22.033Z,27.53
2018-12-27T05:47:46.434Z,26.17
2018-12-27T05:50:10.837Z,26.80
2018-12-27T05:52:35.218Z,27.60
2018-12-27T05:54:59.592Z,28.00
2018-12-27T05:57:24.009Z,27.93
2018-12-27T05:59:48.397Z,28.20
2018-12-27T06:02:31.942Z,27.37
2018-12-27T06:04:56.316Z,27.73
2018-12-27T06:07:20.719Z,27.93
2018-12-27T06:09:45.137Z,28.03
2018-12-27T06:12:09.531Z,28.27
2018-12-27T06:14:33.944Z,27.83
2018-12-27T06:16:58.328Z,28.87
2018-12-27T06:19:22.747Z,27.53
2018-12-27T06:21:47.156Z,27.73
2018-12-27T06:24:11.558Z,28.67
2018-12-27T06:26:35.967Z,28.43
2018-12-27T06:29:00.359Z,29.50
2018-12-27T06:31:24.801Z,28.67
2018-12-27T06:33:49.202Z,26.60
2018-12-27T06:36:13.595Z,28.30
2018-12-27T06:38:38.006Z,28.87
2018-12-27T06:41:02.398Z,28.47
2018-12-27T06:43:26.834Z,27.83
2018-12-27T06:45:51.224Z,28.67
2018-12-27T06:48:15.904Z,30.97
2018-12-27T06:50:40.314Z,28.97
2018-12-27T06:53:04.710Z,29.17
2018-12-27T06:55:29.132Z,27.77
2018-12-27T06:57:53.515Z,29.60
2018-12-27T07:00:17.919Z,29.83
2018-12-27T07:02:42.337Z,29.33
2018-12-27T07:05:06.730Z,28.83
2018-12-27T07:07:31.151Z,30.33
2018-12-27T07:09:55.552Z,27.90
2018-12-27T07:12:19.963Z,29.97
2018-12-27T07:14:44.384Z,29.17
2018-12-27T07:17:08.770Z,30.70
2018-12-27T07:19:33.162Z,26.57
2018-12-27T07:21:57.585Z,29.00
2018-12-27T07:24:21.968Z,30.03
2018-12-27T07:26:46.356Z,29.93
2018-12-27T07:29:10.795Z,30.50
2018-12-27T07:31:35.193Z,28.23
2018-12-27T07:33:59.578Z,28.83
2018-12-27T07:36:23.978Z,29.87
2018-12-27T07:38:48.375Z,29.20
2018-12-27T07:41:12.810Z,28.87
2018-12-27T07:43:37.196Z,30.17
2018-12-27T07:46:01.575Z,30.23
2018-12-27T07:48:25.978Z,27.93
2018-12-27T07:50:50.387Z,28.20
2018-12-27T07:53:14.822Z,29.97
2018-12-27T07:55:39.216Z,29.17
2018-12-27T07:58:03.615Z,28.77
2018-12-27T08:00:28.043Z,28.23
2018-12-27T08:02:52.439Z,28.53
2018-12-27T08:10:32.202Z,28.03
2018-12-27T08:12:56.609Z,29.60
2018-12-27T08:15:20.995Z,26.90
2018-12-27T08:17:45.408Z,27.80
2018-12-27T08:20:09.795Z,28.40
2018-12-27T08:22:34.236Z,28.40
2018-12-27T08:24:58.627Z,27.57
2018-12-27T08:27:23.023Z,28.60
2018-12-27T08:29:47.433Z,26.13
2018-12-27T08:32:11.846Z,25.37
2018-12-27T08:34:37.145Z,29.13
2018-12-27T08:37:11.337Z,26.50
2018-12-27T08:39:35.732Z,25.73
2018-12-27T08:42:00.156Z,26.97
2018-12-27T08:44:24.536Z,28.70
2018-12-27T08:46:48.990Z,26.87
2018-12-27T08:49:13.378Z,28.70
2018-12-27T08:51:37.778Z,29.63
2018-12-27T08:54:02.200Z,26.67
2018-12-27T08:56:26.603Z,28.27
2018-12-27T08:58:51.031Z,27.90
2018-12-27T09:01:15.424Z,28.70
2018-12-27T09:03:39.819Z,29.07
2018-12-27T09:06:04.219Z,28.50
2018-12-27T09:08:28.598Z,28.27
2018-12-27T09:10:53.032Z,29.97
2018-12-27T09:13:17.444Z,28.57
2018-12-27T09:15:41.862Z,27.87
2018-12-27T09:18:06.281Z,27.83
2018-12-27T09:20:30.681Z,27.60
2018-12-27T09:23:06.868Z,25.77
2018-12-27T09:25:31.266Z,25.93
2018-12-27T09:27:55.686Z,26.93
2018-12-27T09:30:20.086Z,26.10
2018-12-27T09:32:44.487Z,26.00
2018-12-27T09:35:08.906Z,25.33
2018-12-27T09:37:33.332Z,27.00
2018-12-27T09:39:57.796Z,26.97
2018-12-27T09:44:57.957Z,26.30
2018-12-27T09:47:22.371Z,25.77
2018-12-27T09:49:46.771Z,25.53
2018-12-27T09:52:16.907Z,26.13
2018-12-27T09:54:41.291Z,26.07
2018-12-27T09:57:05.695Z,25.53
2018-12-27T09:59:30.254Z,24.80
2018-12-27T10:01:54.733Z,24.60
2018-12-27T10:04:19.181Z,24.90
2018-12-27T10:06:43.593Z,23.93
2018-12-27T10:09:08.069Z,24.73
2018-12-27T10:11:32.872Z,24.17
2018-12-27T10:13:58.148Z,23.60
2018-12-27T10:16:22.625Z,24.67
2018-12-27T10:18:47.011Z,25.77
2018-12-27T10:21:11.451Z,24.27
2018-12-27T10:23:35.841Z,24.33
2018-12-27T10:26:00.230Z,24.10
2018-12-27T10:28:24.698Z,24.50
2018-12-27T10:30:49.104Z,24.20
2018-12-27T10:33:13.536Z,24.03
2018-12-27T10:38:14.520Z,24.07
2018-12-27T10:40:38.916Z,24.30
2018-12-27T10:43:03.320Z,24.83
2018-12-27T10:45:27.732Z,22.47
2018-12-27T10:47:52.143Z,23.57
2018-12-27T10:50:16.573Z,24.97
2018-12-27T10:52:53.836Z,23.60
2018-12-27T10:55:18.268Z,25.10
2018-12-27T10:57:42.674Z,24.37
2018-12-27T11:03:03.625Z,24.67
2018-12-27T11:08:04.686Z,25.20
2018-12-27T11:10:29.086Z,25.33
2018-12-27T11:12:53.523Z,25.60
2018-12-27T11:15:17.931Z,24.13
2018-12-27T11:17:42.324Z,26.07
2018-12-27T11:20:27.557Z,26.43
2018-12-27T11:22:51.965Z,24.47
2018-12-27T11:25:16.369Z,25.40
2018-12-27T11:27:40.777Z,25.47
2018-12-27T11:33:02.498Z,26.87
2018-12-27T11:35:26.878Z,26.83
2018-12-27T11:37:51.309Z,26.70
2018-12-27T11:40:15.691Z,26.90
2018-12-27T11:42:40.088Z,25.63
2018-12-27T11:45:15.855Z,26.17
2018-12-27T11:47:40.248Z,26.17
2018-12-27T11:50:16.157Z,25.03
2018-12-27T11:52:40.547Z,24.57
2018-12-27T11:58:01.721Z,26.07
2018-12-27T12:00:26.110Z,22.90
2018-12-27T12:02:50.530Z,29.60
2018-12-27T12:05:14.934Z,22.37
2018-12-27T12:07:39.380Z,28.30
2018-12-27T12:10:15.162Z,29.33
2018-12-27T12:12:39.582Z,25.37
2018-12-27T12:18:00.500Z,22.20
2018-12-27T12:20:24.906Z,23.20
2018-12-27T12:22:49.293Z,23.90
2018-12-27T12:25:13.705Z,21.67
2018-12-27T12:27:38.108Z,20.47
2018-12-27T12:30:02.604Z,19.83
2018-12-27T12:32:27.018Z,18.43
2018-12-27T12:35:03.713Z,19.33
2018-12-27T12:37:28.272Z,20.63
2018-12-27T12:39:52.681Z,19.13
2018-12-27T12:42:17.457Z,21.07
2018-12-27T12:44:41.878Z,22.10
2018-12-27T12:47:06.322Z,22.23
2018-12-27T12:49:30.731Z,21.10
2018-12-27T12:51:55.150Z,21.47
2018-12-27T12:54:19.591Z,21.07
2018-12-27T12:56:43.991Z,21.37
2018-12-27T12:59:08.394Z,22.27
2018-12-27T13:01:32.843Z,19.87
2018-12-27T13:03:57.238Z,21.07
2018-12-27T13:06:21.647Z,20.33
2018-12-27T13:08:46.074Z,20.57
2018-12-27T13:11:10.470Z,19.87
2018-12-27T13:13:34.874Z,21.27
2018-12-27T13:15:59.282Z,20.77
2018-12-27T13:18:23.718Z,20.53
2018-12-27T13:20:48.157Z,20.83
2018-12-27T13:23:12.923Z,19.87
2018-12-27T13:25:47.672Z,20.93
2018-12-27T13:28:12.080Z,20.80
2018-12-27T13:30:36.473Z,21.40
2018-12-27T13:33:00.898Z,20.83
2018-12-27T13:35:25.299Z,19.73
2018-12-27T13:37:49.737Z,20.00
2018-12-27T13:40:14.135Z,19.93
2018-12-27T13:42:38.535Z,20.33
2018-12-27T13:45:02.975Z,20.40
2018-12-27T13:47:27.378Z,20.50
2018-12-27T13:49:51.811Z,18.80
2018-12-27T13:52:23.770Z,19.87
2018-12-27T13:54:48.142Z,19.33
2018-12-27T13:57:12.556Z,20.17
2018-12-27T13:59:36.960Z,20.67
2018-12-27T14:02:01.386Z,19.57
2018-12-27T14:04:25.778Z,20.03
2018-12-27T14:06:50.176Z,19.97
2018-12-27T14:09:14.577Z,19.90
2018-12-27T14:11:38.959Z,20.13
2018-12-27T14:14:03.392Z,21.37
2018-12-27T14:16:27.791Z,19.33
2018-12-27T14:18:52.225Z,20.13
2018-12-27T14:21:16.643Z,20.70
2018-12-27T14:23:53.461Z,20.57
2018-12-27T14:26:17.897Z,22.00
2018-12-27T14:28:42.285Z,19.83
2018-12-27T14:31:06.692Z,21.57
2018-12-27T14:33:31.118Z,20.57
2018-12-27T14:35:55.513Z,22.17
2018-12-27T14:38:19.932Z,21.13
2018-12-27T14:40:44.345Z,21.00
2018-12-27T14:43:08.755Z,21.67
2018-12-27T14:45:33.170Z,20.60
2018-12-27T14:47:57.575Z,20.30
2018-12-27T14:50:22.009Z,21.03
2018-12-27T14:52:46.407Z,20.50
2018-12-27T14:55:10.783Z,22.23
2018-12-27T14:57:35.215Z,21.63
2018-12-27T14:59:59.612Z,21.00
2018-12-27T15:02:29.678Z,20.73
2018-12-27T15:04:54.077Z,20.70
2018-12-27T15:07:18.466Z,22.67
2018-12-27T15:09:42.993Z,23.73
2018-12-27T15:12:07.423Z,21.43
2018-12-27T15:14:31.839Z,21.73
2018-12-27T15:16:56.239Z,22.77
2018-12-27T15:19:20.674Z,23.40
2018-12-27T15:21:45.076Z,22.60
2018-12-27T15:24:09.500Z,23.23
2018-12-27T15:26:34.180Z,23.63
2018-12-27T15:28:58.591Z,23.37
2018-12-27T15:31:23.006Z,22.90
2018-12-27T15:33:47.405Z,24.37
2018-12-27T15:36:11.813Z,22.00
2018-12-27T15:38:36.243Z,20.90
2018-12-27T15:41:00.646Z,23.20
2018-12-27T15:43:25.055Z,22.90
2018-12-27T15:45:49.550Z,23.97
2018-12-27T15:48:14.172Z,22.97
2018-12-27T15:50:38.560Z,22.50
2018-12-27T15:53:02.955Z,22.10
2018-12-27T15:55:27.382Z,22.53
2018-12-27T15:57:51.782Z,23.33
2018-12-27T16:00:16.183Z,22.73
2018-12-27T16:02:40.596Z,22.70
2018-12-27T16:05:05.228Z,21.67
2018-12-27T16:07:29.683Z,21.90
2018-12-27T16:09:54.085Z,23.37
2018-12-27T16:12:18.493Z,22.03
2018-12-27T16:14:44.528Z,21.63
2018-12-27T16:17:14.816Z,23.33
2018-12-27T16:19:39.271Z,22.80
2018-12-27T16:22:03.656Z,22.07
2018-12-27T16:24:28.064Z,22.57
2018-12-27T16:26:52.477Z,23.73
2018-12-27T16:29:16.865Z,22.80
2018-12-27T16:31:41.295Z,22.60
2018-12-27T16:34:05.772Z,21.77
2018-12-27T16:36:35.855Z,23.03
2018-12-27T16:39:00.455Z,23.20
2018-12-27T16:41:24.851Z,22.43
2018-12-27T16:43:49.262Z,22.40
2018-12-27T16:46:13.691Z,23.20
2018-12-27T16:48:38.150Z,23.10
2018-12-27T16:51:02.551Z,22.23
2018-12-27T16:53:26.970Z,22.30
2018-12-27T16:55:51.375Z,24.37
2018-12-27T16:58:15.830Z,21.00
2018-12-27T17:00:40.216Z,22.87
2018-12-27T17:03:04.692Z,23.80
2018-12-27T17:05:29.118Z,22.97
2018-12-27T17:07:53.513Z,21.50
2018-12-27T17:12:54.432Z,21.83
2018-12-27T17:15:18.845Z,23.33
2018-12-27T17:17:43.275Z,22.27
2018-12-27T17:20:07.695Z,22.30
2018-12-27T17:22:32.152Z,23.60
2018-12-27T17:24:56.580Z,23.57
2018-12-27T17:27:42.594Z,24.57
2018-12-27T17:33:03.783Z,27.77
2018-12-27T17:35:28.183Z,27.83
2018-12-27T17:37:52.646Z,25.80
2018-12-27T17:40:17.037Z,29.57
2018-12-27T17:42:41.459Z,24.80
2018-12-27T17:48:03.145Z,26.03
2018-12-27T17:53:03.660Z,25.87
2018-12-27T17:55:28.205Z,29.97
2018-12-27T17:57:52.598Z,27.90
2018-12-27T18:00:22.297Z,27.60
2018-12-27T18:02:46.705Z,26.07
2018-12-27T18:05:11.080Z,25.60
2018-12-27T18:07:35.608Z,26.03
2018-12-27T18:10:00.003Z,26.17
2018-12-27T18:12:24.403Z,25.23
2018-12-27T18:15:09.597Z,24.30
2018-12-27T18:17:34.049Z,23.40
2018-12-27T18:19:58.425Z,22.77
2018-12-27T18:22:22.833Z,21.43
2018-12-27T18:24:47.330Z,23.47
2018-12-27T18:27:11.737Z,21.73
2018-12-27T18:29:36.128Z,22.57
2018-12-27T18:32:13.016Z,21.53
2018-12-27T18:34:37.412Z,20.33
2018-12-27T18:37:01.856Z,22.20
2018-12-27T18:39:26.263Z,19.63
2018-12-27T18:41:50.798Z,20.43
2018-12-27T18:44:15.184Z,20.53
2018-12-27T18:46:39.584Z,19.60
2018-12-27T18:49:04.071Z,19.00
2018-12-27T18:51:28.398Z,19.83
2018-12-27T18:53:52.836Z,19.60
2018-12-27T18:56:17.270Z,19.60
2018-12-27T18:58:41.663Z,18.47
2018-12-27T19:01:06.094Z,19.20
2018-12-27T19:03:42.631Z,19.10
2018-12-27T19:06:07.087Z,20.67
2018-12-27T19:08:31.474Z,18.77
2018-12-27T19:11:34.478Z,20.20
2018-12-27T19:13:58.897Z,19.43
2018-12-27T19:16:23.306Z,19.63
2018-12-27T19:18:47.703Z,19.40
2018-12-27T19:21:12.368Z,19.93
2018-12-27T19:23:36.772Z,21.13
2018-12-27T19:26:01.181Z,21.90
2018-12-27T19:28:25.624Z,22.03
2018-12-27T19:30:50.012Z,21.23
2018-12-27T19:33:14.537Z,21.27
2018-12-27T19:38:15.613Z,23.53
2018-12-27T19:40:40.025Z,22.83
2018-12-27T19:43:04.403Z,22.67
2018-12-27T19:45:28.840Z,21.33
2018-12-27T19:47:53.236Z,21.07
2018-12-27T19:50:17.787Z,21.83
2018-12-27T19:52:42.203Z,22.57
2018-12-27T19:55:06.641Z,21.93
2018-12-27T19:57:31.042Z,23.57
2018-12-27T19:59:55.455Z,21.90
2018-12-27T20:02:20.264Z,22.60
2018-12-27T20:07:20.387Z,22.60
2018-12-27T20:09:44.879Z,23.97
2018-12-27T20:12:09.280Z,22.13
2018-12-27T20:14:33.726Z,23.70
2018-12-27T20:16:58.104Z,21.20
2018-12-27T20:19:22.509Z,22.50
2018-12-27T20:21:47.001Z,22.30
2018-12-27T20:24:11.425Z,22.73
2018-12-27T20:26:35.858Z,21.63
2018-12-27T20:29:00.268Z,22.13
2018-12-27T20:31:24.671Z,21.97
2018-12-27T20:33:49.107Z,21.80
2018-12-27T20:36:13.538Z,20.90
2018-12-27T20:38:37.943Z,21.20
2018-12-27T20:41:02.372Z,20.73
2018-12-27T20:43:26.786Z,21.90
2018-12-27T20:45:51.208Z,21.13
2018-12-27T20:48:21.346Z,21.30
2018-12-27T20:50:46.073Z,20.53
2018-12-27T20:53:10.531Z,21.50
2018-12-27T20:55:34.947Z,21.67
2018-12-27T20:57:59.421Z,22.17
2018-12-27T21:00:23.837Z,21.97
2018-12-27T21:02:48.266Z,22.47
2018-12-27T21:05:12.703Z,21.33
2018-12-27T21:07:37.126Z,22.23
2018-12-27T21:10:01.568Z,21.43
2018-12-27T21:12:26.001Z,21.77
2018-12-27T21:14:50.441Z,22.17
2018-12-27T21:17:14.849Z,22.87
2018-12-27T21:22:15.709Z,22.47
2018-12-27T21:24:40.103Z,22.73
2018-12-27T21:27:04.532Z,23.10
2018-12-27T21:29:28.922Z,23.40
2018-12-27T21:31:53.378Z,22.77
2018-12-27T21:34:17.796Z,22.80
2018-12-27T21:36:42.198Z,22.10
2018-12-27T21:39:27.406Z,24.10
2018-12-27T21:41:51.786Z,21.33
2018-12-27T21:44:16.226Z,22.40
2018-12-27T21:46:40.647Z,21.57
2018-12-27T21:49:05.041Z,22.73
2018-12-27T21:51:29.471Z,21.30
2018-12-27T21:53:53.910Z,21.70
2018-12-27T21:56:18.360Z,22.43
2018-12-27T21:58:42.795Z,23.20
2018-12-27T22:01:07.169Z,22.13
2018-12-27T22:03:31.622Z,23.13
2018-12-27T22:05:56.029Z,22.67
2018-12-27T22:08:20.463Z,22.27
2018-12-27T22:10:44.863Z,22.03
2018-12-27T22:13:09.276Z,21.50
2018-12-27T22:15:33.704Z,23.23
2018-12-27T22:17:58.082Z,22.90
2018-12-27T22:20:22.492Z,23.90
2018-12-27T22:22:46.905Z,22.23
2018-12-27T22:25:11.325Z,22.50
2018-12-27T22:27:35.753Z,24.10
2018-12-27T22:30:00.235Z,23.57
2018-12-27T22:32:24.672Z,24.93
2018-12-27T22:34:49.123Z,22.80
2018-12-27T22:37:13.540Z,24.87
2018-12-27T22:39:37.985Z,22.27
2018-12-27T22:42:02.421Z,23.03
2018-12-27T22:44:26.953Z,24.20
2018-12-27T22:46:51.408Z,23.83
2018-12-27T22:51:51.002Z,25.47
2018-12-27T22:54:15.397Z,23.87
2018-12-27T22:56:39.848Z,25.33
2018-12-27T22:59:04.239Z,25.77
2018-12-27T23:01:28.693Z,26.30
2018-12-27T23:03:53.096Z,26.90
2018-12-27T23:06:17.491Z,25.20
2018-12-27T23:08:43.206Z,26.33
2018-12-27T23:11:16.966Z,25.57
2018-12-27T23:13:41.539Z,25.03
2018-12-27T23:16:05.963Z,25.13
2018-12-27T23:18:30.357Z,26.10
2018-12-27T23:20:54.783Z,24.93
2018-12-27T23:23:19.184Z,26.87
2018-12-27T23:25:43.594Z,27.70
2018-12-27T23:28:08.178Z,27.47
2018-12-27T23:30:32.570Z,27.70
2018-12-27T23:32:57.033Z,27.90
2018-12-27T23:35:21.421Z,28.57
2018-12-27T23:37:45.827Z,27.30
2018-12-27T23:40:10.253Z,27.70
2018-12-27T23:42:34.678Z,28.80
2018-12-27T23:44:59.097Z,25.83
2018-12-27T23:47:23.484Z,28.20
2018-12-27T23:49:47.860Z,28.13
2018-12-27T23:52:12.284Z,28.60
2018-12-27T23:54:36.671Z,27.90
2018-12-27T23:57:01.109Z,28.60
2018-12-27T23:59:25.505Z,27.60
